MHLC/LCE METAR and TAF weather

Enter ICAO airport designator
Station Type Date Time Source
MHLC METAR 2023/02/05 14:00 UTC NOAA

MHLC 051400Z 00000KT 9999 FEW025 SCT080 22/21 Q1019 A3009 NOSIG


Station Type Date Time Source
MHLC Decoded METAR 2023/02/05 14:00 UTC NOAA

La Ceiba Airport , Honduras (MHLC) 15-44N 086-52W 26M
Feb 05, 2023 - 09:00 AM EST / 2023.02.05 1400 UTC
Wind: Calm:0
Visibility: greater than 7 mile(s):0
Sky conditions: partly cloudy
Temperature: 71 F (22 C)
Dew Point: 69 F (21 C)
Relative Humidity: 94%
Pressure (altimeter): 30.09 in. Hg (1018 hPa)
ob: MHLC 051400Z 00000KT 9999 FEW025 SCT080 22/21 Q1019 A3009 NOSIG
cycle: 14

Station Type Date Time Source
MHLC TAF 2023/02/05 12:59 UTC NOAA

TAF MHLC 051100Z 0512/0612 VRB03KT 8000 VCSH FEW024 BKN070 TX28/0520Z TN20/0612Z
BECMG 0514/0516 9999 NSW SCT028TCU
FM051800 04010KT 8000 VCSH SCT032TCU
BECMG 0601/0603 VRB03KT 9999 NSW

Example: see airport list